Terminal Aerodrome Forecast
Issued by NWS Wilmington, OH

Home | Current Version | Previous Version | Text Only | Print | Product List | Glossary On
Versions: 1 2 3 4 5 6 7 8 9 10 11 12 13 14 15 16 17 18 19 20 21 22 23 24 25
000
FTUS41 KILN 062000 AAA
TAFILN
TAF AMD
KILN 062058Z 0621/0718 19009KT P6SM FEW250
     FM062300 21009KT P6SM FEW025 SCT250
     FM070900 22011KT P6SM SCT007 BKN015
     FM071500 22015KT P6SM BKN025 BKN100=

USA.gov is the U.S. government's official web portal to all federal, state and local government web resources and services.